To NAV CANADA Home Page Login to a new session Search on AWWS site Feedback and Comments Disclaimer Vers la page française équivalente Tips FAQ What's new on the site To the Forecasts and Observations / NOTAM section To "File a Flight Plan" website Publications and other links Update of the User's profile FIC Telephone Numbers My Weather Data Folder Route Weather Data Regional Weather Data Local Weather Data To the Forecasts and Observations / NOTAM section
Request Generated 05/04/2016 at 15:30:04 UTC . Weather information available at that time is displayed.

METAR/TAF

TORONTO/LESTER B. PEARSON INTL/ON    

METAR CYYZ 041500Z 15009KT 15SM FEW040 FEW140 BKN270 13/04 A2972 RMK
CF1AC1CI7 CF TR AC TR SLP068 DENSITY ALT 600FT=
METAR CYYZ 041400Z 13005KT 100V180 15SM FEW140 BKN270 12/05 A2972 RMK
AC1CI7 AC TR SLP069=
METAR CYYZ 041300Z 15006KT 110V170 15SM FEW140 BKN270 10/05 A2973 RMK
AC1CI7 AC TR SLP071=

TAF CYYZ 041438Z 0415/0518 12005KT P6SM FEW140 BKN270
FM050300 05008KT P6SM FEW050 SCT170 BKN240 TEMPO 0508/0510 BKN008
BKN170 OVC240
FM051000 01008KT P6SM OVC008 TEMPO 0510/0514 BKN012
FM051400 02008KT P6SM BKN015 BKN240
FM051600 07008KT P6SM -SHRA BKN020 BKN040
RMK NXT FCST BY 041800Z=
Your time UTC time
Weather data provided by Environment Canada and NAV CANADA